createdAt,value
2022-08-20T00:01:20.058Z,100479.75
2022-08-20T00:04:01.750Z,100552.25
2022-08-20T00:06:36.630Z,100532.53
2022-08-20T00:10:21.046Z,100160.44
2022-08-20T00:13:01.246Z,100307.56
2022-08-20T00:15:44.704Z,100521.94
2022-08-20T00:22:00.949Z,100434.25
2022-08-20T00:32:25.219Z,100559.94
2022-08-20T00:35:06.857Z,100472.50
2022-08-20T00:37:38.205Z,100553.19
2022-08-20T00:40:22.087Z,100565.16
2022-08-20T00:43:00.516Z,100520.25
2022-08-20T00:45:32.673Z,100564.59
2022-08-20T00:48:00.684Z,100565.56
2022-08-20T00:50:38.123Z,100516.22
2022-08-20T00:53:08.626Z,100545.38
2022-08-20T00:55:36.653Z,100561.63
2022-08-20T00:58:09.177Z,100559.13
2022-08-20T01:00:43.032Z,100567.38
2022-08-20T01:03:13.752Z,100462.47
2022-08-20T01:05:44.954Z,100506.06
2022-08-20T01:08:13.514Z,100578.56
2022-08-20T01:10:45.013Z,100459.69
2022-08-20T01:13:16.442Z,100437.56
2022-08-20T01:15:47.083Z,100550.47
2022-08-20T01:18:20.560Z,100339.25
2022-08-20T01:20:52.774Z,100576.09
2022-08-20T01:24:10.878Z,100566.75
2022-08-20T01:26:43.258Z,100544.81
2022-08-20T01:29:15.881Z,100573.41
2022-08-20T01:31:43.447Z,100326.47
2022-08-20T01:34:14.316Z,100578.13
2022-08-20T01:36:49.003Z,100605.94
2022-08-20T01:39:26.006Z,100569.50
2022-08-20T01:42:07.799Z,100551.28
2022-08-20T01:44:38.849Z,100575.19
2022-08-20T01:47:21.700Z,100583.41
2022-08-20T01:49:53.459Z,100574.59
2022-08-20T01:52:29.296Z,100550.56
2022-08-20T01:54:57.833Z,100549.97
2022-08-20T01:57:27.122Z,100561.09
2022-08-20T01:59:55.157Z,100568.06
2022-08-20T02:02:24.719Z,100575.94
2022-08-20T02:04:52.817Z,100564.72
2022-08-20T02:07:22.904Z,100572.50
2022-08-20T02:09:51.244Z,100578.91
2022-08-20T02:12:19.210Z,100551.00
2022-08-20T02:14:51.528Z,100580.00
2022-08-20T02:17:23.077Z,100564.78
2022-08-20T02:19:55.687Z,100519.16
2022-08-20T02:22:50.417Z,100589.47
2022-08-20T02:25:20.515Z,100586.72
2022-08-20T02:27:52.817Z,100579.00
2022-08-20T02:30:34.518Z,100578.09
2022-08-20T02:33:04.824Z,100581.44
2022-08-20T02:35:33.807Z,100595.47
2022-08-20T02:38:02.919Z,100486.84
2022-08-20T02:40:32.118Z,100499.19
2022-08-20T02:43:00.750Z,100554.44
2022-08-20T02:45:30.138Z,100602.03
2022-08-20T02:47:59.419Z,100608.75
2022-08-20T02:50:27.837Z,100487.22
2022-08-20T02:52:55.272Z,100478.69
2022-08-20T02:55:27.504Z,100560.03
2022-08-20T02:58:00.462Z,100603.66
2022-08-20T03:00:32.151Z,100601.09
2022-08-20T03:03:08.998Z,100561.78
2022-08-20T03:05:40.786Z,100438.09
2022-08-20T03:08:10.687Z,100484.22
2022-08-20T03:10:39.575Z,100602.19
2022-08-20T03:13:11.522Z,100591.41
2022-08-20T03:16:05.750Z,100602.00
2022-08-20T03:18:37.349Z,100393.31
2022-08-20T03:21:06.531Z,100605.06
2022-08-20T03:23:40.475Z,100608.22
2022-08-20T03:26:10.301Z,100463.22
2022-08-20T03:28:38.185Z,100588.00
2022-08-20T03:31:06.356Z,100612.47
2022-08-20T03:33:34.129Z,100598.03
2022-08-20T03:36:01.536Z,100600.97
2022-08-20T03:38:32.830Z,100613.31
2022-08-20T03:41:01.899Z,100609.44
2022-08-20T03:43:30.591Z,100612.25
2022-08-20T03:45:58.380Z,100614.84
2022-08-20T03:48:25.854Z,100615.63
2022-08-20T03:50:53.769Z,100612.97
2022-08-20T03:53:21.279Z,100610.38
2022-08-20T03:55:54.408Z,100635.28
2022-08-20T03:58:34.761Z,100618.31
2022-08-20T04:01:05.419Z,100617.38
2022-08-20T04:03:33.398Z,100598.31
2022-08-20T04:06:00.828Z,100630.34
2022-08-20T04:08:29.804Z,100633.44
2022-08-20T04:10:58.686Z,100608.78
2022-08-20T04:13:28.150Z,100628.59
2022-08-20T04:15:57.444Z,100484.03
2022-08-20T04:18:26.857Z,100628.00
2022-08-20T04:20:54.482Z,100637.34
2022-08-20T04:23:22.416Z,100627.72
2022-08-20T04:25:50.533Z,100546.22
2022-08-20T04:28:27.496Z,100628.75
2022-08-20T04:30:57.425Z,100438.97
2022-08-20T04:33:34.059Z,100627.97
2022-08-20T04:36:06.188Z,100627.41
2022-08-20T04:38:50.466Z,100542.53
2022-08-20T04:41:23.541Z,100629.38
2022-08-20T04:43:56.063Z,100630.63
2022-08-20T04:46:27.932Z,100560.94
2022-08-20T04:48:56.739Z,100635.38
2022-08-20T04:51:25.196Z,100640.91
2022-08-20T04:53:56.620Z,100630.56
2022-08-20T04:56:29.459Z,100641.50
2022-08-20T04:58:59.346Z,100630.47
2022-08-20T05:01:27.199Z,100624.94
2022-08-20T05:03:56.518Z,100628.31
2022-08-20T05:06:32.474Z,100621.22
2022-08-20T05:09:01.185Z,100628.50
2022-08-20T05:11:34.254Z,100608.53
2022-08-20T05:14:08.246Z,100640.94
2022-08-20T05:16:38.315Z,100631.09
2022-08-20T05:19:09.069Z,100624.50
2022-08-20T05:21:37.438Z,100605.75
2022-08-20T05:24:06.519Z,100640.34
2022-08-20T05:26:34.377Z,100641.63
2022-08-20T05:29:05.087Z,100630.59
2022-08-20T05:31:34.984Z,100627.81
2022-08-20T05:34:10.973Z,100537.31
2022-08-20T05:36:40.292Z,100635.53
2022-08-20T05:39:09.106Z,100604.13
2022-08-20T05:41:37.086Z,100400.25
2022-08-20T05:44:05.579Z,100636.78
2022-08-20T05:46:33.249Z,100654.47
2022-08-20T05:49:02.176Z,100595.38
2022-08-20T05:51:30.287Z,100537.91
2022-08-20T05:53:59.416Z,100631.25
2022-08-20T05:56:30.982Z,100644.69
2022-08-20T05:59:02.976Z,100408.34
2022-08-20T06:01:32.223Z,100653.25
2022-08-20T06:04:19.134Z,100641.22
2022-08-20T06:06:47.506Z,100615.97
2022-08-20T06:09:30.561Z,100512.31
2022-08-20T06:12:04.139Z,100649.63
2022-08-20T06:14:32.041Z,100633.91
2022-08-20T06:17:06.927Z,100647.25
2022-08-20T06:19:35.806Z,100645.84
2022-08-20T06:22:17.242Z,100636.94
2022-08-20T06:24:47.799Z,100640.03
2022-08-20T06:27:16.528Z,100634.94
2022-08-20T06:29:43.962Z,100631.72
2022-08-20T06:32:12.054Z,100656.69
2022-08-20T06:34:49.876Z,100617.78
2022-08-20T06:37:31.388Z,100641.94
2022-08-20T06:40:16.451Z,100636.38
2022-08-20T06:42:48.148Z,100648.31
2022-08-20T06:45:25.742Z,100630.94
2022-08-20T06:47:56.110Z,100629.28
2022-08-20T06:50:27.616Z,100626.06
2022-08-20T06:52:55.003Z,100620.22
2022-08-20T06:55:22.972Z,100511.72
2022-08-20T06:58:01.531Z,100621.84
2022-08-20T07:00:33.380Z,100601.41
2022-08-20T07:03:02.408Z,100615.47
2022-08-20T07:05:33.011Z,100580.41
2022-08-20T07:08:01.281Z,100513.59
2022-08-20T07:10:30.366Z,100421.38
2022-08-20T07:13:00.327Z,100411.41
2022-08-20T07:15:28.192Z,100587.25
2022-08-20T07:18:01.415Z,100606.16
2022-08-20T07:20:30.125Z,100588.09
2022-08-20T07:22:58.648Z,100575.53
2022-08-20T07:25:26.578Z,100594.31
2022-08-20T07:27:59.851Z,100400.41
2022-08-20T07:30:56.210Z,100381.53
2022-08-20T07:33:28.322Z,100585.19
2022-08-20T07:36:01.028Z,100590.78
2022-08-20T07:38:30.849Z,100586.25
2022-08-20T07:41:06.093Z,100459.91
2022-08-20T07:43:34.410Z,100452.78
2022-08-20T07:46:07.583Z,100601.09
2022-08-20T07:48:42.300Z,100585.66
2022-08-20T07:51:11.148Z,100607.94
2022-08-20T07:53:40.477Z,100463.94
2022-08-20T07:56:12.882Z,100611.38
2022-08-20T07:58:49.883Z,100604.94
2022-08-20T08:01:26.867Z,100608.09
2022-08-20T08:03:54.545Z,100593.81
2022-08-20T08:06:29.099Z,100600.56
2022-08-20T08:09:04.268Z,100608.78
2022-08-20T08:11:34.950Z,100609.69
2022-08-20T08:14:05.661Z,100609.44
2022-08-20T08:16:34.712Z,100612.22
2022-08-20T08:19:05.144Z,100621.84
2022-08-20T08:21:32.882Z,100520.81
2022-08-20T08:24:00.435Z,100622.44
2022-08-20T08:26:29.162Z,100606.19
2022-08-20T08:28:58.578Z,100614.97
2022-08-20T08:31:26.473Z,100610.53
2022-08-20T08:33:54.063Z,100621.09
2022-08-20T08:36:21.424Z,100625.44
2022-08-20T08:38:49.101Z,100621.72
2022-08-20T08:41:36.786Z,100630.56
2022-08-20T08:44:06.655Z,100620.44
2022-08-20T08:46:41.390Z,100584.84
2022-08-20T08:49:14.908Z,100611.34
2022-08-20T08:51:48.416Z,100615.63
2022-08-20T08:54:22.258Z,100450.59
2022-08-20T08:56:50.700Z,100625.13
2022-08-20T08:59:20.353Z,100537.84
2022-08-20T09:01:53.970Z,100624.00
2022-08-20T09:04:31.879Z,100626.06
2022-08-20T09:07:01.668Z,100568.91
2022-08-20T09:09:41.120Z,100636.84
2022-08-20T09:12:14.920Z,100643.31
2022-08-20T09:14:42.834Z,100398.59
2022-08-20T09:17:10.272Z,100608.75
2022-08-20T09:19:38.004Z,100580.50
2022-08-20T09:22:14.227Z,100622.75
2022-08-20T09:24:42.816Z,100641.28
2022-08-20T09:27:10.742Z,100646.00
2022-08-20T09:29:39.181Z,100646.56
2022-08-20T09:32:14.138Z,100553.56
2022-08-20T09:34:44.843Z,100631.13
2022-08-20T09:37:13.197Z,100639.91
2022-08-20T09:39:40.961Z,100628.75
2022-08-20T09:42:13.262Z,100643.34
2022-08-20T09:44:41.995Z,100636.88
2022-08-20T09:47:09.806Z,100619.34
2022-08-20T09:49:37.609Z,100639.72
2022-08-20T09:52:08.022Z,100633.47
2022-08-20T09:54:36.322Z,100624.50
2022-08-20T09:57:06.302Z,100617.63
2022-08-20T09:59:35.145Z,100519.28
2022-08-20T10:02:02.970Z,100533.00
2022-08-20T10:04:30.548Z,100609.34
2022-08-20T10:06:58.187Z,100498.00
2022-08-20T10:09:25.862Z,100492.69
2022-08-20T10:11:53.378Z,100505.31
2022-08-20T10:14:21.056Z,100556.56
2022-08-20T10:16:56.543Z,100433.41
2022-08-20T10:19:29.044Z,100579.59
2022-08-20T10:21:56.366Z,100439.13
2022-08-20T10:24:24.584Z,100452.28
2022-08-20T10:26:56.021Z,100600.78
2022-08-20T10:29:23.342Z,100632.44
2022-08-20T10:31:51.229Z,100512.63
2022-08-20T10:34:18.895Z,100618.28
2022-08-20T10:36:47.690Z,100617.78
2022-08-20T10:39:15.610Z,100604.50
2022-08-20T10:41:43.520Z,100568.50
2022-08-20T10:44:10.970Z,100618.34
2022-08-20T10:46:38.910Z,100615.97
2022-08-20T10:49:06.417Z,100613.84
2022-08-20T10:51:33.701Z,100613.53
2022-08-20T10:54:01.355Z,100530.22
2022-08-20T10:56:28.779Z,100601.75
2022-08-20T10:58:56.049Z,100596.59
2022-08-20T11:01:31.633Z,100595.63
2022-08-20T11:04:00.629Z,100594.66
2022-08-20T11:06:28.591Z,100576.34
2022-08-20T11:08:56.938Z,100553.34
2022-08-20T11:11:24.641Z,100577.25
2022-08-20T11:13:51.972Z,100561.41
2022-08-20T11:16:19.220Z,100597.16
2022-08-20T11:18:47.558Z,100591.97
2022-08-20T11:21:15.847Z,100598.34
2022-08-20T11:23:43.272Z,100585.41
2022-08-20T11:26:23.746Z,100581.78
2022-08-20T11:28:51.301Z,100567.94
2022-08-20T11:31:18.830Z,100463.50
2022-08-20T11:33:46.862Z,100501.31
2022-08-20T11:36:14.442Z,100544.69
2022-08-20T11:38:41.808Z,100542.91
2022-08-20T11:41:09.276Z,100489.47
2022-08-20T11:43:36.903Z,100543.69
2022-08-20T11:46:04.196Z,100548.06
2022-08-20T11:48:32.073Z,100547.91
2022-08-20T11:50:59.514Z,100546.56
2022-08-20T11:53:27.181Z,100541.41
2022-08-20T11:55:56.444Z,100526.66
2022-08-20T11:58:24.171Z,100546.59
2022-08-20T12:00:51.790Z,100540.81
2022-08-20T12:03:19.406Z,100543.50
2022-08-20T12:05:47.445Z,100523.19
2022-08-20T12:08:25.113Z,100539.38
2022-08-20T12:10:54.666Z,100518.47
2022-08-20T12:13:30.878Z,100515.38
2022-08-20T12:16:09.704Z,100521.31
2022-08-20T12:18:37.191Z,100524.53
2022-08-20T12:21:04.745Z,100517.09
2022-08-20T12:23:32.444Z,100519.94
2022-08-20T12:26:03.113Z,100445.66
2022-08-20T12:28:31.715Z,100497.91
2022-08-20T12:30:59.874Z,100520.97
2022-08-20T12:33:27.367Z,100513.63
2022-08-20T12:35:54.897Z,100507.38
2022-08-20T12:38:22.676Z,100508.00
2022-08-20T12:40:50.008Z,100510.19
2022-08-20T12:43:19.658Z,100508.88
2022-08-20T12:45:49.173Z,100496.47
2022-08-20T12:48:16.646Z,100495.34
2022-08-20T12:50:46.023Z,100403.69
2022-08-20T12:53:13.837Z,100480.28
2022-08-20T12:55:41.433Z,100454.19
2022-08-20T12:58:10.625Z,100482.38
2022-08-20T13:00:47.274Z,100469.50
2022-08-20T13:03:20.203Z,100459.09
2022-08-20T13:05:49.102Z,100342.66
2022-08-20T13:08:18.087Z,100478.34
2022-08-20T13:10:45.920Z,100501.50
2022-08-20T13:13:20.088Z,100466.69
2022-08-20T13:15:50.300Z,100452.59
2022-08-20T13:18:18.882Z,100473.44
2022-08-20T13:20:46.583Z,100396.69
2022-08-20T13:23:13.940Z,100467.78
2022-08-20T13:25:41.876Z,100460.19
2022-08-20T13:28:09.343Z,100456.16
2022-08-20T13:30:38.897Z,100468.63
2022-08-20T13:33:06.744Z,100453.81
2022-08-20T13:35:34.021Z,100447.56
2022-08-20T13:38:01.500Z,100474.66
2022-08-20T13:40:29.042Z,100466.44
2022-08-20T13:42:56.507Z,100471.72
2022-08-20T13:45:23.943Z,100474.16
2022-08-20T13:47:55.236Z,100472.81
2022-08-20T13:50:25.599Z,100458.22
2022-08-20T13:52:53.351Z,100445.75
2022-08-20T13:55:23.883Z,100460.22
2022-08-20T13:57:52.464Z,100347.94
2022-08-20T14:00:31.838Z,100436.56
2022-08-20T14:03:04.613Z,100452.34
2022-08-20T14:05:33.538Z,100448.06
2022-08-20T14:08:06.990Z,100445.38
2022-08-20T14:10:35.241Z,100396.34
2022-08-20T14:13:03.509Z,100427.84
2022-08-20T14:15:33.832Z,100436.94
2022-08-20T14:18:02.441Z,100367.66
2022-08-20T14:20:32.770Z,100437.38
2022-08-20T14:23:01.127Z,100410.78
2022-08-20T14:25:30.860Z,100411.88
2022-08-20T14:27:59.391Z,100427.22
2022-08-20T14:30:29.598Z,100415.19
2022-08-20T14:32:57.382Z,100364.13
2022-08-20T14:35:24.930Z,100420.84
2022-08-20T14:37:54.016Z,100417.56
2022-08-20T14:40:24.115Z,100421.00
2022-08-20T14:42:51.933Z,100413.13
2022-08-20T14:45:19.868Z,100396.84
2022-08-20T14:47:53.834Z,100422.81
2022-08-20T14:50:31.249Z,100419.50
2022-08-20T14:52:59.837Z,100396.94
2022-08-20T14:55:30.824Z,100342.94
2022-08-20T14:57:58.862Z,100424.66
2022-08-20T15:00:29.062Z,100417.81
2022-08-20T15:02:57.094Z,100313.78
2022-08-20T15:05:26.584Z,100422.81
2022-08-20T15:07:56.523Z,100411.31
2022-08-20T15:10:27.008Z,100407.34
2022-08-20T15:12:54.982Z,100416.31
2022-08-20T15:15:23.968Z,100321.00
2022-08-20T15:17:55.201Z,100413.88
2022-08-20T15:20:26.932Z,100422.22
2022-08-20T15:22:55.129Z,100409.59
2022-08-20T15:25:24.991Z,100376.63
2022-08-20T15:27:58.326Z,100399.28
2022-08-20T15:30:31.042Z,100405.31
2022-08-20T15:32:59.057Z,100397.56
2022-08-20T15:35:28.433Z,100403.69
2022-08-20T15:37:58.480Z,100389.50
2022-08-20T15:40:29.153Z,100404.44
2022-08-20T15:43:01.819Z,100394.72
2022-08-20T15:45:29.654Z,100382.88
2022-08-20T15:48:33.956Z,100385.41
2022-08-20T15:51:23.688Z,100393.75
2022-08-20T15:54:12.324Z,100402.69
2022-08-20T15:57:17.948Z,100390.06
2022-08-20T16:00:07.758Z,100403.53
2022-08-20T16:02:39.089Z,100395.84
2022-08-20T16:05:23.522Z,100400.75
2022-08-20T16:08:09.617Z,100401.19
2022-08-20T16:10:54.008Z,100388.72
2022-08-20T16:13:44.830Z,100395.69
2022-08-20T16:16:34.165Z,100407.78
2022-08-20T16:19:02.949Z,100402.63
2022-08-20T16:21:37.028Z,100408.78
2022-08-20T16:24:07.219Z,100389.41
2022-08-20T16:27:10.250Z,100414.00
2022-08-20T16:29:46.394Z,100307.88
2022-08-20T16:32:25.769Z,100412.06
2022-08-20T16:35:02.193Z,100407.66
2022-08-20T16:38:03.968Z,100306.50
2022-08-20T16:40:49.369Z,100404.81
2022-08-20T16:43:35.018Z,100406.88
2022-08-20T16:46:13.291Z,100413.72
2022-08-20T16:48:49.606Z,100402.13
2022-08-20T16:51:36.844Z,100414.72
2022-08-20T16:54:04.413Z,100222.75
2022-08-20T16:56:37.989Z,100410.88
2022-08-20T16:59:09.650Z,100365.38
2022-08-20T17:01:37.602Z,100423.53
2022-08-20T17:04:07.285Z,100417.06
2022-08-20T17:06:43.940Z,100416.19
2022-08-20T17:09:23.015Z,100404.19
2022-08-20T17:11:51.827Z,100408.84
2022-08-20T17:15:10.424Z,100417.66
2022-08-20T17:17:37.969Z,100410.44
2022-08-20T17:20:20.127Z,100422.16
2022-08-20T17:23:08.917Z,100419.34
2022-08-20T17:25:40.937Z,100421.94
2022-08-20T17:28:20.975Z,100410.78
2022-08-20T17:30:48.571Z,100395.16
2022-08-20T17:33:39.230Z,100284.81
2022-08-20T17:36:13.876Z,100418.94
2022-08-20T17:38:47.890Z,100412.72
2022-08-20T17:41:26.193Z,100400.91
2022-08-20T17:44:09.648Z,100413.47
2022-08-20T17:46:44.410Z,100413.56
2022-08-20T17:49:17.594Z,100419.84
2022-08-20T17:51:49.160Z,100413.91
2022-08-20T17:54:26.475Z,100418.53
2022-08-20T17:57:06.150Z,100411.47
2022-08-20T18:00:00.851Z,100398.97
2022-08-20T18:02:34.609Z,100406.06
2022-08-20T18:05:02.917Z,100406.28
2022-08-20T18:07:45.282Z,100414.59
2022-08-20T18:10:18.662Z,100410.44
2022-08-20T18:12:49.200Z,100403.09
2022-08-20T18:15:24.698Z,100407.84
2022-08-20T18:18:26.664Z,100411.13
2022-08-20T18:21:14.418Z,100402.94
2022-08-20T18:24:04.534Z,100400.81
2022-08-20T18:26:38.410Z,100408.75
2022-08-20T18:29:31.938Z,100411.81
2022-08-20T18:32:06.066Z,100425.28
2022-08-20T18:34:33.757Z,100415.59
2022-08-20T18:37:28.370Z,100393.38
2022-08-20T18:40:18.562Z,100384.28
2022-08-20T18:43:03.034Z,100410.66
2022-08-20T18:45:38.058Z,100404.13
2022-08-20T18:48:27.041Z,100406.09
2022-08-20T18:50:56.904Z,100405.22
2022-08-20T18:53:39.863Z,100378.94
2022-08-20T18:56:18.880Z,100413.75
2022-08-20T18:58:49.485Z,100409.22
2022-08-20T19:01:21.213Z,100385.75
2022-08-20T19:04:00.166Z,100402.72
2022-08-20T19:07:05.606Z,100403.47
2022-08-20T19:09:48.596Z,100408.84
2022-08-20T19:12:39.036Z,100409.31
2022-08-20T19:15:08.309Z,100409.22
2022-08-20T19:17:56.917Z,100412.41
2022-08-20T19:20:29.555Z,100415.34
2022-08-20T19:23:08.619Z,100415.34
2022-08-20T19:25:41.202Z,100323.78
2022-08-20T19:28:29.272Z,100424.03
2022-08-20T19:31:40.206Z,100424.72
2022-08-20T19:34:25.382Z,100420.84
2022-08-20T19:37:10.032Z,100398.50
2022-08-20T19:39:55.613Z,100428.47
2022-08-20T19:42:45.547Z,100360.91
2022-08-20T19:46:01.852Z,100404.19
2022-08-20T19:48:50.320Z,100251.16
2022-08-20T19:51:48.053Z,100424.50
2022-08-20T19:54:47.228Z,100057.75
2022-08-20T19:57:19.666Z,100306.56
2022-08-20T20:00:07.314Z,100401.06
2022-08-20T20:02:47.306Z,100409.22
2022-08-20T20:05:34.722Z,100418.47
2022-08-20T20:08:15.655Z,100408.38
2022-08-20T20:10:52.931Z,100404.41
2022-08-20T20:13:40.094Z,100419.56
2022-08-20T20:16:08.003Z,100412.66
2022-08-20T20:18:58.876Z,100407.59
2022-08-20T20:21:46.787Z,100421.47
2022-08-20T20:24:43.560Z,100330.34
2022-08-20T20:27:28.625Z,100435.41
2022-08-20T20:30:01.847Z,100303.50
2022-08-20T20:32:34.141Z,100421.91
2022-08-20T20:35:05.442Z,100414.06
2022-08-20T20:37:41.536Z,100411.38
2022-08-20T20:40:54.010Z,100430.91
2022-08-20T20:43:58.253Z,100420.56
2022-08-20T20:46:41.504Z,100413.50
2022-08-20T20:49:41.224Z,100393.81
2022-08-20T20:52:30.269Z,100422.50
2022-08-20T20:55:29.909Z,100426.38
2022-08-20T20:58:02.725Z,100389.00
2022-08-20T21:00:34.128Z,100421.84
2022-08-20T21:03:09.521Z,100391.97
2022-08-20T21:05:39.067Z,100407.75
2022-08-20T21:08:28.909Z,100383.41
2022-08-20T21:10:58.072Z,100420.78
2022-08-20T21:13:25.626Z,100405.75
2022-08-20T21:15:53.369Z,100416.28
2022-08-20T21:18:24.150Z,100329.06
2022-08-20T21:20:54.223Z,100408.31
2022-08-20T21:23:22.382Z,100419.03
2022-08-20T21:26:18.832Z,100342.56
2022-08-20T21:28:46.979Z,100339.13
2022-08-20T21:31:14.195Z,100415.41
2022-08-20T21:33:41.746Z,100419.94
2022-08-20T21:36:09.844Z,100405.50
2022-08-20T21:38:37.326Z,100417.56
2022-08-20T21:41:05.038Z,100420.16
2022-08-20T21:43:33.035Z,100407.38
2022-08-20T21:46:02.298Z,100413.94
2022-08-20T21:48:30.681Z,100327.63
2022-08-20T21:50:58.705Z,100345.16
2022-08-20T21:53:26.133Z,100424.41
2022-08-20T21:55:53.470Z,100393.38
2022-08-20T21:58:21.499Z,100413.13
2022-08-20T22:00:59.882Z,100427.00
2022-08-20T22:03:31.551Z,100404.34
2022-08-20T22:06:01.750Z,100422.41
2022-08-20T22:08:29.925Z,100417.25
2022-08-20T22:10:58.920Z,100336.75
2022-08-20T22:13:31.799Z,100419.81
2022-08-20T22:16:02.009Z,100405.31
2022-08-20T22:18:29.438Z,100352.84
2022-08-20T22:20:57.535Z,100421.59
2022-08-20T22:23:25.789Z,100418.63
2022-08-20T22:25:53.635Z,100329.84
2022-08-20T22:28:21.701Z,100356.91
2022-08-20T22:30:49.979Z,100414.38
2022-08-20T22:33:22.342Z,100392.25
2022-08-20T22:35:53.020Z,100417.56
2022-08-20T22:38:35.014Z,100414.03
2022-08-20T22:41:14.969Z,100398.31
2022-08-20T22:43:56.920Z,100345.50
2022-08-20T22:49:33.460Z,100384.53
2022-08-20T22:52:04.261Z,100377.25
2022-08-20T22:55:25.251Z,100393.75
2022-08-20T22:58:05.193Z,100402.88
2022-08-20T23:00:33.638Z,100390.66
2022-08-20T23:03:13.522Z,100300.66
2022-08-20T23:05:52.480Z,100315.91
2022-08-20T23:08:24.144Z,100393.81
2022-08-20T23:11:13.078Z,100374.91
2022-08-20T23:13:48.247Z,100407.66
2022-08-20T23:16:20.969Z,100400.59
2022-08-20T23:18:52.989Z,100374.00
2022-08-20T23:21:24.541Z,100327.38
2022-08-20T23:24:28.282Z,100403.28
2022-08-20T23:26:53.490Z,100289.97
2022-08-20T23:29:25.804Z,100338.88
2022-08-20T23:36:11.164Z,100338.31
2022-08-20T23:38:46.073Z,100287.41
2022-08-20T23:41:21.329Z,100397.66
2022-08-20T23:44:01.028Z,100390.13
2022-08-20T23:46:40.914Z,100393.00
2022-08-20T23:49:13.319Z,100374.84
2022-08-20T23:51:49.202Z,100269.28
2022-08-20T23:54:24.956Z,100372.56
2022-08-20T23:57:00.927Z,100372.56
2022-08-20T23:59:35.031Z,100289.44
